Hub


Voltar

 INFORMAÇÕES METEOROLÓGICAS

METAR FOR KALM


ADDS - METARS form results

(2050 UTC 16 February 2019)
Data provider http://aviationweather.gov/metar/data/
 
METAR text: KALM 162035Z AUTO 27027G35KT 7SM CLR 17/M08 A2974 RMK AO2
Conditions at: KALM (ALAMOGORDO WHITE, NM, US) observed 2035 UTC 16 February 2019
Temperature: 17.0°C (63°F)
Dewpoint: -8.0°C (18°F) [RH = 17%]
Pressure (altimeter): 29.74 inches Hg (1007.2 mb)
Winds: from the W (270 degrees) at 31 MPH (27 knots; 13.9 m/s)
gusting to 40 MPH (35 knots; 18.0 m/s)
Visibility: 7 miles (11 km)
Ceiling: at least 12,000 feet AGL
Clouds: sky clear below 12,000 feet AGL
Weather: automated observation with no human augmentation;
there may or may not be significant weather present at this time

METAR text: KALM 162015Z AUTO 26028G36KT 9SM CLR 16/M08 A2975 RMK AO2
Conditions at: KALM (ALAMOGORDO WHITE, NM, US) observed 2015 UTC 16 February 2019
Temperature: 16.0°C (61°F)
Dewpoint: -8.0°C (18°F) [RH = 18%]
Pressure (altimeter): 29.75 inches Hg (1007.5 mb)
Winds: from the W (260 degrees) at 32 MPH (28 knots; 14.4 m/s)
gusting to 41 MPH (36 knots; 18.5 m/s)
Visibility: 9 miles (14 km)
Ceiling: at least 12,000 feet AGL
Clouds: sky clear below 12,000 feet AGL
Weather: automated observation with no human augmentation;
there may or may not be significant weather present at this time

METAR text: KALM 161955Z AUTO 25030G35KT 7SM CLR 17/M08 A2976 RMK AO2
Conditions at: KALM (ALAMOGORDO WHITE, NM, US) observed 1955 UTC 16 February 2019
Temperature: 17.0°C (63°F)
Dewpoint: -8.0°C (18°F) [RH = 17%]
Pressure (altimeter): 29.76 inches Hg (1007.9 mb)
Winds: from the WSW (250 degrees) at 34 MPH (30 knots; 15.4 m/s)
gusting to 40 MPH (35 knots; 18.0 m/s)
Visibility: 7 miles (11 km)
Ceiling: at least 12,000 feet AGL
Clouds: sky clear below 12,000 feet AGL
Weather: automated observation with no human augmentation;
there may or may not be significant weather present at this time


 MAPA DO AEROPORTO


 INFORMAÇÕES DA PISTA

Pista 03 Tamanho da pista 7006 ft Largura da pista 150 ft
Elevação da pista 4144 ft Ranhura da pista 0 ft Proa da pista 46
Pista 21 Tamanho da pista 7006 ft Largura da pista 150 ft
Elevação da pista 4200 ft Ranhura da pista 0 ft Proa da pista 226
Pista 16 Tamanho da pista 3512 ft Largura da pista 200 ft
Elevação da pista 4200 ft Ranhura da pista 0 ft Proa da pista 173
Pista 34 Tamanho da pista 3512 ft Largura da pista 200 ft
Elevação da pista 4200 ft Ranhura da pista 0 ft Proa da pista 353

 FREQUÊNCIAS DO AEROPORTO

Tipo APP Nome HOLLOMAN A Frequência 120.6 MHZ
Tipo AWOS Nome AWOS 3 Frequência 127.825 MHZ
Tipo DEP Nome HOLLOMAN D Frequência 128.1 MHZ
Tipo RDO Nome ALBUQUERQU Frequência 122.15 MHZ
Tipo UNIC Nome CTAF/UNICO Frequência 122.8 MHZ

 AUXÍLIOS DE NAVEGAÇÃO PRÓXIMOS AO AEROPORTO

Tipo VOR-DME Nome Boles Frequência 109600 KHZ